createdAt,value
2023-02-13T00:02:55.641Z,0.30
2023-02-13T00:06:17.311Z,0.30
2023-02-13T00:09:40.340Z,0.20
2023-02-13T00:13:01.936Z,0.20
2023-02-13T00:16:23.529Z,0.20
2023-02-13T00:19:45.172Z,0.20
2023-02-13T00:23:06.760Z,0.10
2023-02-13T00:26:29.680Z,0.10
2023-02-13T00:29:51.282Z,0.10
2023-02-13T00:33:12.946Z,0.10
2023-02-13T00:36:34.559Z,0.10
2023-02-13T00:39:56.209Z,0.10
2023-02-13T00:43:20.484Z,0.00
2023-02-13T00:46:42.827Z,0.00
2023-02-13T00:50:05.039Z,0.00
2023-02-13T00:53:27.241Z,-0.10
2023-02-13T00:56:49.061Z,-0.10
2023-02-13T01:00:17.035Z,-0.10
2023-02-13T01:03:40.065Z,0.00
2023-02-13T01:07:01.712Z,0.00
2023-02-13T01:10:23.638Z,0.00
2023-02-13T01:13:45.380Z,0.00
2023-02-13T01:17:07.008Z,0.00
2023-02-13T01:20:30.093Z,0.00
2023-02-13T01:23:51.702Z,0.00
2023-02-13T01:27:13.339Z,0.00
2023-02-13T01:30:35.004Z,0.00
2023-02-13T01:33:56.912Z,0.00
2023-02-13T01:37:19.907Z,0.00
2023-02-13T01:40:44.659Z,0.00
2023-02-13T01:44:21.200Z,0.00
2023-02-13T01:47:45.287Z,0.00
2023-02-13T01:51:08.522Z,0.00
2023-02-13T01:54:34.145Z,0.00
2023-02-13T01:58:00.029Z,0.10
2023-02-13T02:01:22.163Z,0.10
2023-02-13T02:04:44.270Z,0.00
2023-02-13T02:08:07.914Z,0.00
2023-02-13T02:11:34.517Z,0.00
2023-02-13T02:14:57.799Z,0.00
2023-02-13T02:18:20.953Z,0.00
2023-02-13T02:22:02.181Z,0.00
2023-02-13T02:25:35.475Z,0.00
2023-02-13T02:29:05.078Z,0.00
2023-02-13T02:32:45.526Z,0.00
2023-02-13T02:36:15.243Z,0.00
2023-02-13T02:39:43.968Z,0.00
2023-02-13T02:43:12.570Z,-0.10
2023-02-13T02:46:36.471Z,0.00
2023-02-13T02:50:03.251Z,-0.10
2023-02-13T02:53:31.530Z,-0.10
2023-02-13T02:56:54.429Z,-0.10
2023-02-13T03:00:17.230Z,-0.20
2023-02-13T03:03:39.752Z,-0.10
2023-02-13T03:07:03.024Z,-0.20
2023-02-13T03:10:28.570Z,-0.10
2023-02-13T03:13:50.175Z,-0.20
2023-02-13T03:17:13.002Z,-0.20
2023-02-13T03:20:40.054Z,-0.20
2023-02-13T03:24:04.279Z,-0.10
2023-02-13T03:27:33.594Z,-0.10
2023-02-13T03:30:59.378Z,0.00
2023-02-13T03:34:22.120Z,0.00
2023-02-13T03:37:47.327Z,-0.10
2023-02-13T03:41:14.073Z,-0.10
2023-02-13T03:44:39.551Z,0.00
2023-02-13T03:48:02.833Z,0.00
2023-02-13T03:51:27.356Z,0.00
2023-02-13T03:54:49.917Z,0.00
2023-02-13T03:58:13.997Z,0.00
2023-02-13T04:01:37.291Z,0.00
2023-02-13T04:05:00.356Z,0.00
2023-02-13T04:08:22.037Z,0.00
2023-02-13T04:11:49.034Z,0.00
2023-02-13T04:15:14.511Z,0.00
2023-02-13T04:18:37.884Z,-0.10
2023-02-13T04:22:00.179Z,-0.10
2023-02-13T04:25:21.812Z,-0.10
2023-02-13T04:28:43.524Z,-0.20
2023-02-13T04:32:05.098Z,-0.20
2023-02-13T04:35:28.020Z,-0.30
2023-02-13T04:38:49.931Z,-0.30
2023-02-13T04:42:11.505Z,-0.30
2023-02-13T04:45:33.193Z,-0.30
2023-02-13T04:48:54.775Z,-0.40
2023-02-13T04:52:17.707Z,-0.40
2023-02-13T04:55:39.289Z,-0.40
2023-02-13T04:59:00.894Z,-0.40
2023-02-13T05:02:22.483Z,-0.40
2023-02-13T05:05:44.123Z,-0.50
2023-02-13T05:09:07.073Z,-0.60
2023-02-13T05:12:28.644Z,-0.70
2023-02-13T05:15:50.595Z,-0.70
2023-02-13T05:19:12.347Z,-0.80
2023-02-13T05:22:33.945Z,-0.80
2023-02-13T05:25:56.894Z,-0.80
2023-02-13T05:29:18.579Z,-0.90
2023-02-13T05:32:40.160Z,-0.90
2023-02-13T05:36:01.741Z,-0.90
2023-02-13T05:39:23.351Z,-0.90
2023-02-13T05:42:46.322Z,-0.90
2023-02-13T05:46:09.426Z,-0.90
2023-02-13T05:49:31.052Z,-0.90
2023-02-13T05:52:52.663Z,-0.90
2023-02-13T05:56:14.249Z,-0.90
2023-02-13T05:59:37.202Z,-1.00
2023-02-13T06:02:58.901Z,-1.00
2023-02-13T06:06:20.557Z,-0.90
2023-02-13T06:09:42.289Z,-0.90
2023-02-13T06:13:03.892Z,-0.80
2023-02-13T06:16:26.973Z,-0.80
2023-02-13T06:19:48.620Z,-0.70
2023-02-13T06:23:10.232Z,-0.80
2023-02-13T06:26:31.852Z,-0.70
2023-02-13T06:29:53.444Z,-0.70
2023-02-13T06:33:16.371Z,-0.60
2023-02-13T06:36:37.941Z,-0.50
2023-02-13T06:39:59.643Z,-0.60
2023-02-13T06:43:21.253Z,-0.60
2023-02-13T06:46:42.917Z,-0.60
2023-02-13T06:50:06.801Z,-0.50
2023-02-13T06:53:28.607Z,-0.30
2023-02-13T06:56:50.224Z,-0.10
2023-02-13T07:00:12.685Z,0.00
2023-02-13T07:03:34.400Z,0.00
2023-02-13T07:06:57.404Z,-0.10
2023-02-13T07:10:19.090Z,-0.10
2023-02-13T07:13:42.313Z,-0.10
2023-02-13T07:17:03.980Z,-0.20
2023-02-13T07:20:26.080Z,-0.20
2023-02-13T07:23:49.016Z,-0.30
2023-02-13T07:27:10.642Z,-0.30
2023-02-13T07:30:32.988Z,-0.20
2023-02-13T07:33:54.652Z,-0.20
2023-02-13T07:37:16.226Z,-0.10
2023-02-13T07:40:39.196Z,-0.10
2023-02-13T07:44:00.828Z,0.00
2023-02-13T07:47:22.625Z,0.10
2023-02-13T07:50:44.217Z,0.20
2023-02-13T07:54:05.858Z,0.40
2023-02-13T07:57:28.893Z,0.50
2023-02-13T08:00:50.528Z,0.40
2023-02-13T08:04:12.227Z,0.40
2023-02-13T08:07:34.034Z,0.50
2023-02-13T08:10:55.708Z,0.70
2023-02-13T08:14:18.614Z,0.80
2023-02-13T08:17:40.194Z,1.10
2023-02-13T08:21:02.103Z,1.40
2023-02-13T08:24:24.103Z,2.20
2023-02-13T08:27:45.864Z,3.40
2023-02-13T08:31:11.930Z,4.30
2023-02-13T08:34:33.706Z,5.10
2023-02-13T08:37:55.342Z,5.80
2023-02-13T08:44:40.291Z,5.90
2023-02-13T08:48:03.411Z,6.60
2023-02-13T08:51:25.039Z,6.80
2023-02-13T08:54:46.649Z,7.30
2023-02-13T08:58:08.252Z,7.90
2023-02-13T09:01:29.922Z,8.50
2023-02-13T09:04:52.896Z,8.90
2023-02-13T09:08:14.539Z,8.90
2023-02-13T09:11:36.200Z,9.20
2023-02-13T09:14:57.760Z,9.10
2023-02-13T09:18:19.383Z,9.30
2023-02-13T09:21:42.342Z,9.40
2023-02-13T09:25:04.131Z,9.70
2023-02-13T09:28:25.926Z,9.90
2023-02-13T09:31:47.673Z,8.60
2023-02-13T09:35:09.394Z,8.60
2023-02-13T09:38:33.005Z,7.90
2023-02-13T09:41:55.282Z,7.00
2023-02-13T09:45:20.417Z,6.40
2023-02-13T09:48:43.503Z,5.80
2023-02-13T09:52:05.078Z,5.70
2023-02-13T09:55:30.763Z,5.40
2023-02-13T09:58:56.825Z,5.10
2023-02-13T10:02:27.155Z,4.90
2023-02-13T10:05:55.216Z,4.90
2023-02-13T10:09:21.423Z,4.70
2023-02-13T10:12:53.141Z,4.80
2023-02-13T10:16:16.721Z,4.80
2023-02-13T10:19:41.519Z,4.70
2023-02-13T10:23:12.400Z,4.80
2023-02-13T10:26:35.918Z,4.80
2023-02-13T10:30:01.048Z,4.90
2023-02-13T10:33:25.742Z,4.80
2023-02-13T10:36:47.797Z,4.70
2023-02-13T10:40:10.420Z,4.70
2023-02-13T10:43:35.454Z,4.80
2023-02-13T10:47:01.192Z,4.90
2023-02-13T10:50:26.518Z,4.90
2023-02-13T10:53:52.394Z,5.00
2023-02-13T10:57:16.851Z,5.00
2023-02-13T11:00:43.119Z,5.10
2023-02-13T11:04:07.430Z,5.10
2023-02-13T11:07:30.151Z,5.20
2023-02-13T11:10:51.873Z,5.10
2023-02-13T11:14:14.755Z,5.30
2023-02-13T11:17:39.499Z,5.40
2023-02-13T11:21:04.677Z,5.40
2023-02-13T11:24:26.964Z,5.50
2023-02-13T11:27:49.579Z,5.70
2023-02-13T11:31:25.345Z,5.70
2023-02-13T11:34:47.756Z,5.80
2023-02-13T11:38:20.710Z,5.80
2023-02-13T11:41:43.563Z,5.80
2023-02-13T11:45:06.673Z,5.80
2023-02-13T11:48:28.429Z,5.90
2023-02-13T11:51:51.777Z,6.00
2023-02-13T11:55:26.070Z,6.10
2023-02-13T11:59:00.589Z,6.20
2023-02-13T12:02:23.177Z,6.20
2023-02-13T12:05:59.727Z,6.30
2023-02-13T12:09:21.566Z,6.40
2023-02-13T12:12:49.625Z,6.50
2023-02-13T12:16:14.035Z,6.70
2023-02-13T12:19:39.286Z,6.70
2023-02-13T12:23:05.666Z,6.80
2023-02-13T12:26:30.026Z,6.90
2023-02-13T12:30:02.103Z,7.00
2023-02-13T12:33:35.048Z,7.00
2023-02-13T12:37:03.947Z,7.00
2023-02-13T12:40:43.048Z,7.00
2023-02-13T12:44:22.155Z,7.10
2023-02-13T12:47:51.504Z,7.20
2023-02-13T12:51:20.970Z,7.20
2023-02-13T12:54:48.953Z,7.30
2023-02-13T12:58:19.132Z,7.40
2023-02-13T13:01:58.489Z,7.40
2023-02-13T13:05:35.311Z,7.40
2023-02-13T13:09:04.639Z,7.50
2023-02-13T13:12:31.042Z,7.60
2023-02-13T13:15:59.814Z,7.60
2023-02-13T13:19:28.390Z,7.70
2023-02-13T13:22:52.226Z,7.80
2023-02-13T13:26:18.927Z,7.80
2023-02-13T13:29:43.549Z,7.80
2023-02-13T13:33:07.559Z,7.80
2023-02-13T13:36:34.790Z,7.90
2023-02-13T13:40:00.442Z,8.10
2023-02-13T13:43:27.396Z,8.10
2023-02-13T13:46:54.270Z,8.20
2023-02-13T13:50:22.344Z,8.20
2023-02-13T13:53:58.836Z,8.30
2023-02-13T13:57:23.069Z,8.40
2023-02-13T14:00:46.001Z,8.40
2023-02-13T14:04:30.659Z,8.40
2023-02-13T14:07:53.197Z,8.30
2023-02-13T14:11:41.707Z,8.40
2023-02-13T14:15:03.469Z,8.40
2023-02-13T14:18:26.974Z,8.30
2023-02-13T14:21:48.571Z,8.30
2023-02-13T14:25:21.522Z,8.40
2023-02-13T14:28:43.996Z,8.40
2023-02-13T14:32:08.025Z,8.30
2023-02-13T14:35:31.983Z,8.30
2023-02-13T14:38:57.179Z,8.30
2023-02-13T14:42:23.280Z,8.20
2023-02-13T14:45:47.578Z,8.20
2023-02-13T14:49:12.888Z,8.10
2023-02-13T14:52:38.148Z,8.10
2023-02-13T14:56:03.392Z,8.00
2023-02-13T14:59:26.392Z,8.00
2023-02-13T15:02:51.095Z,7.90
2023-02-13T15:06:14.195Z,7.80
2023-02-13T15:09:38.650Z,7.70
2023-02-13T15:13:00.899Z,7.60
2023-02-13T15:16:22.701Z,7.50
2023-02-13T15:19:45.474Z,7.40
2023-02-13T15:23:07.236Z,7.30
2023-02-13T15:26:32.628Z,7.20
2023-02-13T15:29:55.364Z,7.10
2023-02-13T15:33:17.816Z,7.00
2023-02-13T15:36:40.659Z,7.00
2023-02-13T15:40:15.345Z,6.90
2023-02-13T15:43:39.683Z,6.80
2023-02-13T15:47:02.907Z,6.80
2023-02-13T15:50:31.281Z,6.70
2023-02-13T15:53:53.084Z,6.70
2023-02-13T15:57:14.840Z,6.60
2023-02-13T16:00:40.797Z,6.50
2023-02-13T16:04:03.289Z,6.40
2023-02-13T16:07:25.001Z,6.30
2023-02-13T16:10:46.768Z,6.20
2023-02-13T16:14:15.667Z,6.00
2023-02-13T16:17:39.801Z,5.80
2023-02-13T16:21:03.034Z,5.60
2023-02-13T16:24:25.405Z,5.50
2023-02-13T16:27:50.278Z,5.30
2023-02-13T16:31:14.194Z,5.20
2023-02-13T16:34:37.406Z,5.00
2023-02-13T16:37:59.965Z,4.80
2023-02-13T16:41:32.053Z,4.70
2023-02-13T16:45:08.538Z,4.50
2023-02-13T16:48:30.398Z,4.40
2023-02-13T16:51:58.424Z,4.20
2023-02-13T16:55:20.979Z,4.10
2023-02-13T16:58:42.579Z,3.90
2023-02-13T17:02:15.310Z,3.70
2023-02-13T17:05:37.588Z,3.60
2023-02-13T17:09:00.539Z,3.50
2023-02-13T17:12:22.494Z,3.30
2023-02-13T17:15:45.427Z,3.20
2023-02-13T17:19:07.072Z,3.10
2023-02-13T17:22:31.532Z,3.00
2023-02-13T17:25:54.476Z,3.00
2023-02-13T17:29:16.088Z,2.80
2023-02-13T17:32:37.702Z,2.70
2023-02-13T17:35:59.303Z,2.60
2023-02-13T17:39:20.885Z,2.50
2023-02-13T17:42:44.303Z,2.40
2023-02-13T17:46:05.975Z,2.40
2023-02-13T17:49:27.606Z,2.40
2023-02-13T17:52:49.169Z,2.30
2023-02-13T17:56:10.748Z,2.20
2023-02-13T17:59:34.111Z,2.20
2023-02-13T18:02:56.699Z,2.00
2023-02-13T18:06:18.564Z,1.90
2023-02-13T18:09:41.755Z,1.80
2023-02-13T18:13:05.028Z,1.70
2023-02-13T18:16:28.700Z,1.60
2023-02-13T18:19:51.063Z,1.50
2023-02-13T18:23:13.138Z,1.40
2023-02-13T18:26:35.313Z,1.30
2023-02-13T18:29:57.417Z,1.30
2023-02-13T18:33:20.968Z,1.20
2023-02-13T18:36:43.145Z,1.20
2023-02-13T18:40:05.653Z,1.10
2023-02-13T18:43:27.538Z,1.00
2023-02-13T18:46:49.214Z,1.00
2023-02-13T18:50:12.672Z,1.00
2023-02-13T18:53:34.648Z,0.90
2023-02-13T18:56:56.375Z,0.80
2023-02-13T19:00:18.568Z,0.80
2023-02-13T19:03:41.089Z,0.70
2023-02-13T19:07:04.420Z,0.70
2023-02-13T19:10:26.015Z,0.70
2023-02-13T19:13:47.586Z,0.70
2023-02-13T19:17:09.545Z,0.60
2023-02-13T19:20:31.566Z,0.60
2023-02-13T19:23:55.251Z,0.60
2023-02-13T19:27:17.219Z,0.60
2023-02-13T19:30:38.925Z,0.70
2023-02-13T19:34:00.845Z,0.70
2023-02-13T19:37:22.451Z,0.70
2023-02-13T19:40:45.361Z,0.60
2023-02-13T19:44:07.049Z,0.60
2023-02-13T19:47:28.643Z,0.60
2023-02-13T19:50:50.524Z,0.60
2023-02-13T19:54:12.226Z,0.50
2023-02-13T19:57:35.275Z,0.50
2023-02-13T20:01:05.588Z,0.50
2023-02-13T20:04:27.219Z,0.40
2023-02-13T20:07:48.838Z,0.40
2023-02-13T20:11:11.133Z,0.40
2023-02-13T20:14:34.116Z,0.40
2023-02-13T20:17:55.776Z,0.30
2023-02-13T20:21:17.771Z,0.20
2023-02-13T20:24:39.439Z,0.10
2023-02-13T20:28:01.103Z,0.10
2023-02-13T20:31:24.378Z,0.00
2023-02-13T20:34:59.122Z,0.00
2023-02-13T20:38:21.307Z,-0.10
2023-02-13T20:41:42.908Z,-0.10
2023-02-13T20:45:04.949Z,-0.20
2023-02-13T20:48:27.900Z,-0.20
2023-02-13T20:51:49.515Z,-0.20
2023-02-13T20:55:11.294Z,-0.30
2023-02-13T20:58:33.168Z,-0.30
2023-02-13T21:01:54.896Z,-0.30
2023-02-13T21:05:17.886Z,-0.30
2023-02-13T21:08:42.000Z,-0.30
2023-02-13T21:12:04.276Z,-0.30
2023-02-13T21:15:27.968Z,-0.30
2023-02-13T21:18:50.086Z,-0.40
2023-02-13T21:22:13.722Z,-0.40
2023-02-13T21:25:35.308Z,-0.50
2023-02-13T21:28:56.992Z,-0.50
2023-02-13T21:32:18.668Z,-0.50
2023-02-13T21:35:40.338Z,-0.50
2023-02-13T21:39:03.918Z,-0.50
2023-02-13T21:42:25.534Z,-0.50
2023-02-13T21:45:47.218Z,-0.50
2023-02-13T21:49:11.742Z,-0.60
2023-02-13T21:52:34.860Z,-0.60
2023-02-13T21:55:57.842Z,-0.60
2023-02-13T21:59:19.456Z,-0.60
2023-02-13T22:02:41.171Z,-0.50
2023-02-13T22:06:02.847Z,-0.50
2023-02-13T22:09:24.428Z,-0.60
2023-02-13T22:12:51.248Z,-0.60
2023-02-13T22:16:14.224Z,-0.70
2023-02-13T22:19:36.512Z,-0.70
2023-02-13T22:22:58.343Z,-0.70
2023-02-13T22:26:20.844Z,-0.70
2023-02-13T22:29:43.886Z,-0.70
2023-02-13T22:33:05.485Z,-0.70
2023-02-13T22:36:27.417Z,-0.70
2023-02-13T22:39:49.066Z,-0.70
2023-02-13T22:43:10.663Z,-0.70
2023-02-13T22:46:34.040Z,-0.60
2023-02-13T22:49:55.661Z,-0.60
2023-02-13T22:53:17.289Z,-0.60
2023-02-13T22:56:39.075Z,-0.70
2023-02-13T23:00:00.672Z,-0.70
2023-02-13T23:03:23.931Z,-0.80
2023-02-13T23:06:45.632Z,-0.90
2023-02-13T23:10:07.965Z,-0.90
2023-02-13T23:13:29.961Z,-0.80
2023-02-13T23:16:51.942Z,-0.70
2023-02-13T23:20:15.576Z,-0.70
2023-02-13T23:23:37.891Z,-0.70
2023-02-13T23:27:00.030Z,-0.80
2023-02-13T23:30:22.352Z,-0.70
2023-02-13T23:33:44.934Z,-0.70
2023-02-13T23:37:08.348Z,-0.70
2023-02-13T23:40:30.345Z,-0.60
2023-02-13T23:43:52.221Z,-0.70
2023-02-13T23:47:14.074Z,-0.70
2023-02-13T23:50:36.025Z,-0.70
2023-02-13T23:53:59.391Z,-0.80
2023-02-13T23:57:22.209Z,-0.90
